createdAt,value
2022-10-23T00:00:35.133Z,22.30
2022-10-23T00:01:35.333Z,20.20
2022-10-23T00:02:35.145Z,18.60
2022-10-23T00:03:34.979Z,16.90
2022-10-23T00:04:34.963Z,22.60
2022-10-23T00:05:34.959Z,24.80
2022-10-23T00:06:34.975Z,22.10
2022-10-23T00:07:34.980Z,24.70
2022-10-23T00:08:34.888Z,21.90
2022-10-23T00:09:34.909Z,25.70
2022-10-23T00:10:34.891Z,20.30
2022-10-23T00:11:34.867Z,22.30
2022-10-23T00:12:34.855Z,17.90
2022-10-23T00:13:34.881Z,17.80
2022-10-23T00:14:34.825Z,19.10
2022-10-23T00:15:34.859Z,23.90
2022-10-23T00:16:34.787Z,26.50
2022-10-23T00:17:34.781Z,19.90
2022-10-23T00:18:34.755Z,22.20
2022-10-23T00:19:34.789Z,22.90
2022-10-23T00:20:34.753Z,21.40
2022-10-23T00:21:34.723Z,21.50
2022-10-23T00:22:34.726Z,22.20
2022-10-23T00:23:34.734Z,20.40
2022-10-23T00:24:34.779Z,27.90
2022-10-23T00:25:34.682Z,24.40
2022-10-23T00:26:34.718Z,23.10
2022-10-23T00:27:34.704Z,20.80
2022-10-23T00:28:34.667Z,24.10
2022-10-23T00:29:34.690Z,22.70
2022-10-23T00:30:34.687Z,23.10
2022-10-23T00:31:34.671Z,20.60
2022-10-23T00:32:34.638Z,25.30
2022-10-23T00:33:34.621Z,30.90
2022-10-23T00:34:35.830Z,30.00
2022-10-23T00:35:34.978Z,20.80
2022-10-23T00:36:34.645Z,22.40
2022-10-23T00:37:34.750Z,22.00
2022-10-23T00:38:34.499Z,21.90
2022-10-23T00:39:34.503Z,21.10
2022-10-23T00:40:34.453Z,19.50
2022-10-23T00:41:34.439Z,20.50
2022-10-23T00:42:34.439Z,20.90
2022-10-23T00:43:34.488Z,20.30
2022-10-23T00:44:34.457Z,21.30
2022-10-23T00:45:34.418Z,22.60
2022-10-23T00:46:34.380Z,23.60
2022-10-23T00:47:34.375Z,21.50
2022-10-23T00:48:34.367Z,19.90
2022-10-23T00:49:34.643Z,17.90
2022-10-23T00:50:34.382Z,18.90
2022-10-23T00:51:34.355Z,16.90
2022-10-23T00:52:34.288Z,18.20
2022-10-23T00:53:34.311Z,23.00
2022-10-23T00:54:34.262Z,16.90
2022-10-23T00:55:34.307Z,17.70
2022-10-23T00:56:34.287Z,18.40
2022-10-23T00:57:34.232Z,19.50
2022-10-23T00:58:34.233Z,18.10
2022-10-23T00:59:34.456Z,16.90
2022-10-23T01:00:34.333Z,14.00
2022-10-23T01:01:34.349Z,16.80
2022-10-23T01:02:34.226Z,18.00
2022-10-23T01:03:34.182Z,18.70
2022-10-23T01:04:34.194Z,17.60
2022-10-23T01:05:34.210Z,17.80
2022-10-23T01:06:34.120Z,16.20
2022-10-23T01:07:34.092Z,16.00
2022-10-23T01:08:34.099Z,18.20
2022-10-23T01:09:34.089Z,16.70
2022-10-23T01:10:34.152Z,24.50
2022-10-23T01:11:34.079Z,17.60
2022-10-23T01:12:34.095Z,18.40
2022-10-23T01:13:34.026Z,16.20
2022-10-23T01:14:34.006Z,15.80
2022-10-23T01:15:34.071Z,16.90
2022-10-23T01:16:33.982Z,15.80
2022-10-23T01:17:33.994Z,16.10
2022-10-23T01:18:33.994Z,18.40
2022-10-23T01:19:33.930Z,17.30
2022-10-23T01:20:33.986Z,15.50
2022-10-23T01:21:33.946Z,14.30
2022-10-23T01:22:33.926Z,16.60
2022-10-23T01:23:33.871Z,16.50
2022-10-23T01:24:33.914Z,17.40
2022-10-23T01:25:33.934Z,18.30
2022-10-23T01:26:33.848Z,19.40
2022-10-23T01:27:33.852Z,18.50
2022-10-23T01:28:33.841Z,20.70
2022-10-23T01:29:33.877Z,18.90
2022-10-23T01:30:33.904Z,18.90
2022-10-23T01:31:33.966Z,23.30
2022-10-23T01:32:33.931Z,24.50
2022-10-23T01:33:33.874Z,26.00
2022-10-23T01:34:33.880Z,20.70
2022-10-23T01:35:33.773Z,19.40
2022-10-23T01:36:33.731Z,22.70
2022-10-23T01:37:33.715Z,18.90
2022-10-23T01:38:33.692Z,19.60
2022-10-23T01:39:33.705Z,17.90
2022-10-23T01:40:33.668Z,21.30
2022-10-23T01:41:33.697Z,17.20
2022-10-23T01:42:33.661Z,24.60
2022-10-23T01:43:33.652Z,19.20
2022-10-23T01:44:33.609Z,22.00
2022-10-23T01:45:33.628Z,21.90
2022-10-23T01:46:33.598Z,16.60
2022-10-23T01:47:33.673Z,18.80
2022-10-23T01:48:33.578Z,19.80
2022-10-23T01:49:33.532Z,22.90
2022-10-23T01:50:33.549Z,20.60
2022-10-23T01:51:33.497Z,18.20
2022-10-23T01:52:33.510Z,21.70
2022-10-23T01:53:33.503Z,18.60
2022-10-23T01:54:33.465Z,20.60
2022-10-23T01:55:33.489Z,17.60
2022-10-23T01:56:33.449Z,17.20
2022-10-23T01:57:33.469Z,20.90
2022-10-23T01:58:33.426Z,24.50
2022-10-23T01:59:33.461Z,18.30
2022-10-23T02:00:33.407Z,23.40
2022-10-23T02:01:33.475Z,26.50
2022-10-23T02:02:33.408Z,16.20
2022-10-23T02:03:33.373Z,20.90
2022-10-23T02:04:33.328Z,24.70
2022-10-23T02:05:33.352Z,24.60
2022-10-23T02:06:33.323Z,24.80
2022-10-23T02:07:33.330Z,23.10
2022-10-23T02:08:33.305Z,17.90
2022-10-23T02:09:33.297Z,20.10
2022-10-23T02:10:33.313Z,19.80
2022-10-23T02:11:33.270Z,15.40
2022-10-23T02:12:33.248Z,22.10
2022-10-23T02:13:33.225Z,19.30
2022-10-23T02:14:33.264Z,18.70
2022-10-23T02:15:34.193Z,17.20
2022-10-23T02:16:33.469Z,20.10
2022-10-23T02:17:33.583Z,24.50
2022-10-23T02:18:33.279Z,16.20
2022-10-23T02:19:33.148Z,17.80
2022-10-23T02:20:33.207Z,17.90
2022-10-23T02:21:33.136Z,17.20
2022-10-23T02:22:33.144Z,17.40
2022-10-23T02:23:33.143Z,17.40
2022-10-23T02:24:33.083Z,13.70
2022-10-23T02:25:33.058Z,15.50
2022-10-23T02:26:33.085Z,13.80
2022-10-23T02:27:33.052Z,20.90
2022-10-23T02:28:33.098Z,17.10
2022-10-23T02:29:33.101Z,13.50
2022-10-23T02:30:33.092Z,12.00
2022-10-23T02:31:33.094Z,13.90
2022-10-23T02:32:33.143Z,14.90
2022-10-23T02:33:32.976Z,15.60
2022-10-23T02:34:32.985Z,14.40
2022-10-23T02:35:32.946Z,19.40
2022-10-23T02:36:32.929Z,14.10
2022-10-23T02:37:32.937Z,15.20
2022-10-23T02:38:32.962Z,15.50
2022-10-23T02:39:32.924Z,15.10
2022-10-23T02:40:32.872Z,15.90
2022-10-23T02:41:32.892Z,17.60
2022-10-23T02:42:32.832Z,17.30
2022-10-23T02:43:32.879Z,17.50
2022-10-23T02:44:32.854Z,14.60
2022-10-23T02:45:32.866Z,19.70
2022-10-23T02:46:32.781Z,15.00
2022-10-23T02:47:32.819Z,11.00
2022-10-23T02:48:32.797Z,14.30
2022-10-23T02:49:32.733Z,14.30
2022-10-23T02:50:32.752Z,14.80
2022-10-23T02:51:32.745Z,14.90
2022-10-23T02:52:32.705Z,16.50
2022-10-23T02:53:32.728Z,13.50
2022-10-23T02:54:32.712Z,18.70
2022-10-23T02:55:32.663Z,17.70
2022-10-23T02:56:34.527Z,18.10
2022-10-23T02:57:32.788Z,15.00
2022-10-23T02:58:32.677Z,17.00
2022-10-23T02:59:32.636Z,13.00
2022-10-23T03:00:32.628Z,13.90
2022-10-23T03:01:32.681Z,18.60
2022-10-23T03:03:32.603Z,26.40
2022-10-23T03:04:32.547Z,16.60
2022-10-23T03:05:32.634Z,13.00
2022-10-23T03:06:32.577Z,13.60
2022-10-23T03:07:32.547Z,15.70
2022-10-23T03:08:32.506Z,17.80
2022-10-23T03:09:32.539Z,15.70
2022-10-23T03:11:35.046Z,15.40
2022-10-23T03:12:36.035Z,17.50
2022-10-23T03:13:36.034Z,16.20
2022-10-23T03:14:36.074Z,20.00
2022-10-23T03:15:36.005Z,20.40
2022-10-23T03:16:36.012Z,12.80
2022-10-23T03:17:35.961Z,13.80
2022-10-23T03:18:35.970Z,17.80
2022-10-23T03:19:35.962Z,18.30
2022-10-23T03:20:35.931Z,16.00
2022-10-23T03:21:35.935Z,17.20
2022-10-23T03:22:35.918Z,21.30
2022-10-23T03:23:35.907Z,17.80
2022-10-23T03:24:35.889Z,19.80
2022-10-23T03:25:35.866Z,18.70
2022-10-23T03:26:35.874Z,17.80
2022-10-23T03:27:35.885Z,23.70
2022-10-23T03:28:35.840Z,19.40
2022-10-23T03:29:35.834Z,18.90
2022-10-23T03:30:35.809Z,21.90
2022-10-23T03:31:35.787Z,23.40
2022-10-23T03:32:35.776Z,20.40
2022-10-23T03:33:35.785Z,21.00
2022-10-23T03:34:35.758Z,20.40
2022-10-23T03:35:35.752Z,24.00
2022-10-23T03:36:35.716Z,17.60
2022-10-23T03:37:35.715Z,23.20
2022-10-23T03:38:35.709Z,21.40
2022-10-23T03:39:35.697Z,23.50
2022-10-23T03:40:35.663Z,19.30
2022-10-23T03:41:35.671Z,19.80
2022-10-23T03:42:35.659Z,23.40
2022-10-23T03:43:35.668Z,17.90
2022-10-23T03:44:35.621Z,16.30
2022-10-23T03:45:35.603Z,28.50
2022-10-23T03:46:35.606Z,20.60
2022-10-23T03:47:35.594Z,22.80
2022-10-23T03:48:35.565Z,23.50
2022-10-23T03:49:35.579Z,24.70
2022-10-23T03:50:35.547Z,22.20
2022-10-23T03:51:35.520Z,20.80
2022-10-23T03:52:35.514Z,25.10
2022-10-23T03:53:35.491Z,20.10
2022-10-23T03:54:35.498Z,20.80
2022-10-23T03:55:35.490Z,24.20
2022-10-23T03:56:35.475Z,22.20
2022-10-23T03:57:35.442Z,16.60
2022-10-23T03:58:35.441Z,16.50
2022-10-23T03:59:35.444Z,18.60
2022-10-23T04:00:35.437Z,21.00
2022-10-23T04:01:35.494Z,21.90
2022-10-23T04:02:35.502Z,19.20
2022-10-23T04:03:35.383Z,20.30
2022-10-23T04:04:35.377Z,17.70
2022-10-23T04:05:35.369Z,20.50
2022-10-23T04:06:35.389Z,15.70
2022-10-23T04:07:35.344Z,19.30
2022-10-23T04:08:35.323Z,21.50
2022-10-23T04:09:35.304Z,16.00
2022-10-23T04:10:35.289Z,17.10
2022-10-23T04:11:35.295Z,19.70
2022-10-23T04:12:35.263Z,22.10
2022-10-23T04:13:35.268Z,22.80
2022-10-23T04:14:35.216Z,24.90
2022-10-23T04:15:35.227Z,26.10
2022-10-23T04:16:35.187Z,24.00
2022-10-23T04:17:35.196Z,26.30
2022-10-23T04:18:35.171Z,28.30
2022-10-23T04:19:35.183Z,23.40
2022-10-23T04:20:35.133Z,20.10
2022-10-23T04:21:35.160Z,21.40
2022-10-23T04:22:35.112Z,23.80
2022-10-23T04:23:35.101Z,23.30
2022-10-23T04:24:35.086Z,21.70
2022-10-23T04:25:35.140Z,27.60
2022-10-23T04:26:35.085Z,28.60
2022-10-23T04:27:35.088Z,23.70
2022-10-23T04:28:35.031Z,20.70
2022-10-23T04:29:35.064Z,23.20
2022-10-23T04:30:35.013Z,21.20
2022-10-23T04:31:34.996Z,20.20
2022-10-23T04:32:34.989Z,17.80
2022-10-23T04:33:35.021Z,29.10
2022-10-23T04:34:34.957Z,22.90
2022-10-23T04:35:34.966Z,23.40
2022-10-23T04:36:35.039Z,22.10
2022-10-23T04:37:34.911Z,30.80
2022-10-23T04:38:34.917Z,28.90
2022-10-23T04:39:34.918Z,26.00
2022-10-23T04:40:34.878Z,26.70
2022-10-23T04:41:34.877Z,21.60
2022-10-23T04:42:34.873Z,28.60
2022-10-23T04:43:34.864Z,26.40
2022-10-23T04:44:34.830Z,23.90
2022-10-23T04:45:34.830Z,26.50
2022-10-23T04:46:34.804Z,31.00
2022-10-23T04:47:34.804Z,31.20
2022-10-23T04:48:34.811Z,32.10
2022-10-23T04:49:34.778Z,31.00
2022-10-23T04:50:34.798Z,38.00
2022-10-23T04:51:34.760Z,34.90
2022-10-23T04:52:34.711Z,24.00
2022-10-23T04:53:34.734Z,26.80
2022-10-23T04:54:34.695Z,28.20
2022-10-23T04:55:34.700Z,27.90
2022-10-23T04:56:34.667Z,27.20
2022-10-23T04:57:34.654Z,34.50
2022-10-23T04:58:34.663Z,28.50
2022-10-23T04:59:34.624Z,30.80
2022-10-23T05:00:34.631Z,32.00
2022-10-23T05:01:34.782Z,40.90
2022-10-23T05:02:34.590Z,31.40
2022-10-23T05:03:34.572Z,82.30
2022-10-23T05:04:34.577Z,44.60
2022-10-23T05:05:34.555Z,36.60
2022-10-23T05:06:34.547Z,27.80
2022-10-23T05:07:34.521Z,29.10
2022-10-23T05:08:34.502Z,37.70
2022-10-23T05:09:34.501Z,30.10
2022-10-23T05:10:34.485Z,27.20
2022-10-23T05:11:34.472Z,31.10
2022-10-23T05:12:34.464Z,30.60
2022-10-23T05:13:34.464Z,25.80
2022-10-23T05:14:34.474Z,23.50
2022-10-23T05:15:34.438Z,30.40
2022-10-23T05:16:34.431Z,25.10
2022-10-23T05:17:34.416Z,27.10
2022-10-23T05:18:34.384Z,28.10
2022-10-23T05:19:34.359Z,25.50
2022-10-23T05:20:34.375Z,34.60
2022-10-23T05:21:34.352Z,26.70
2022-10-23T05:22:34.330Z,24.50
2022-10-23T05:23:34.320Z,23.70
2022-10-23T05:24:34.286Z,26.80
2022-10-23T05:25:34.295Z,22.80
2022-10-23T05:26:34.267Z,32.90
2022-10-23T05:27:34.301Z,29.70
2022-10-23T05:28:34.257Z,29.30
2022-10-23T05:29:34.227Z,35.70
2022-10-23T05:30:34.209Z,32.20
2022-10-23T05:31:34.198Z,29.30
2022-10-23T05:32:34.200Z,27.80
2022-10-23T05:33:34.205Z,20.00
2022-10-23T05:34:34.172Z,28.20
2022-10-23T05:35:34.150Z,25.10
2022-10-23T05:36:34.135Z,22.50
2022-10-23T05:37:34.131Z,19.40
2022-10-23T05:38:34.101Z,20.10
2022-10-23T05:39:34.095Z,16.90
2022-10-23T05:40:34.128Z,19.50
2022-10-23T05:41:34.076Z,19.80
2022-10-23T05:42:36.107Z,18.70
2022-10-23T05:43:34.062Z,23.20
2022-10-23T05:44:34.031Z,24.00
2022-10-23T05:45:34.015Z,24.60
2022-10-23T05:46:34.013Z,28.20
2022-10-23T05:47:34.012Z,25.40
2022-10-23T05:48:35.220Z,22.20
2022-10-23T05:49:33.986Z,28.20
2022-10-23T05:50:33.967Z,24.70
2022-10-23T05:51:33.958Z,20.30
2022-10-23T05:52:33.950Z,21.10
2022-10-23T05:53:36.134Z,30.50
2022-10-23T05:54:33.950Z,22.20
2022-10-23T05:55:33.900Z,22.30
2022-10-23T05:56:33.886Z,19.60
2022-10-23T05:57:33.902Z,21.50
2022-10-23T05:58:33.839Z,19.00
2022-10-23T05:59:33.882Z,24.90
2022-10-23T06:00:33.834Z,27.70
2022-10-23T06:01:33.969Z,25.50
2022-10-23T06:02:33.859Z,23.30
2022-10-23T06:03:33.778Z,24.80
2022-10-23T06:04:33.762Z,23.40
2022-10-23T06:05:33.820Z,28.00
2022-10-23T06:06:33.768Z,20.10
2022-10-23T06:07:35.801Z,36.00
2022-10-23T06:08:33.726Z,25.30
2022-10-23T06:09:33.709Z,31.10
2022-10-23T06:10:33.698Z,31.60
2022-10-23T06:11:33.683Z,31.30
2022-10-23T06:12:33.678Z,22.90
2022-10-23T06:13:33.652Z,25.00
2022-10-23T06:14:33.638Z,28.40
2022-10-23T06:15:33.623Z,25.70
2022-10-23T06:16:33.641Z,26.30
2022-10-23T06:17:33.596Z,25.00
2022-10-23T06:18:33.581Z,24.20
2022-10-23T06:19:33.599Z,26.40
2022-10-23T06:20:33.579Z,30.30
2022-10-23T06:21:33.548Z,35.30
2022-10-23T06:22:33.526Z,28.40
2022-10-23T06:23:33.546Z,26.60
2022-10-23T06:24:33.508Z,24.40
2022-10-23T06:25:33.510Z,26.50
2022-10-23T06:26:33.503Z,23.80
2022-10-23T06:27:33.499Z,25.30
2022-10-23T06:28:33.461Z,28.60
2022-10-23T06:29:33.436Z,25.10
2022-10-23T06:30:33.469Z,31.70
2022-10-23T06:31:33.414Z,31.50
2022-10-23T06:32:33.417Z,25.30
2022-10-23T06:33:33.426Z,27.80
2022-10-23T06:34:33.386Z,32.30
2022-10-23T06:35:33.384Z,30.30
2022-10-23T06:36:33.366Z,39.10
2022-10-23T06:37:33.335Z,36.60
2022-10-23T06:38:33.333Z,45.20
2022-10-23T06:39:33.322Z,42.90
2022-10-23T06:40:33.316Z,45.00
2022-10-23T06:41:33.287Z,42.00
2022-10-23T06:42:33.265Z,51.90
2022-10-23T06:43:33.276Z,49.30
2022-10-23T06:44:33.263Z,43.50
2022-10-23T06:45:33.243Z,61.70
2022-10-23T06:46:33.238Z,49.80
2022-10-23T06:47:33.245Z,50.60
2022-10-23T06:48:33.189Z,48.00
2022-10-23T06:49:33.211Z,41.90
2022-10-23T06:50:33.163Z,46.20
2022-10-23T06:51:33.166Z,48.10
2022-10-23T06:52:46.472Z,40.40
2022-10-23T06:53:33.158Z,50.20
2022-10-23T06:54:33.190Z,38.90
2022-10-23T06:55:33.188Z,43.70
2022-10-23T06:56:33.137Z,48.70
2022-10-23T06:57:33.098Z,42.70
2022-10-23T06:58:33.055Z,40.80
2022-10-23T06:59:33.066Z,42.10
2022-10-23T07:00:33.076Z,40.70
2022-10-23T07:01:33.227Z,40.60
2022-10-23T07:02:33.013Z,45.20
2022-10-23T07:03:33.002Z,38.40
2022-10-23T07:04:32.985Z,30.80
2022-10-23T07:05:32.983Z,36.20
2022-10-23T07:06:32.956Z,41.80
2022-10-23T07:07:32.955Z,44.60
2022-10-23T07:08:32.930Z,36.80
2022-10-23T07:09:32.926Z,40.90
2022-10-23T07:10:32.896Z,34.10
2022-10-23T07:11:32.882Z,32.80
2022-10-23T07:12:32.904Z,32.80
2022-10-23T07:13:32.881Z,36.40
2022-10-23T07:14:32.861Z,32.90
2022-10-23T07:15:32.914Z,32.60
2022-10-23T07:16:32.842Z,31.10
2022-10-23T07:17:32.818Z,35.10
2022-10-23T07:18:32.800Z,31.80
2022-10-23T07:19:32.788Z,31.40
2022-10-23T07:20:32.790Z,29.70
2022-10-23T07:21:32.782Z,28.60
2022-10-23T07:22:32.747Z,30.30
2022-10-23T07:23:32.755Z,28.60
2022-10-23T07:24:32.733Z,27.90
2022-10-23T07:25:32.739Z,38.30
2022-10-23T07:26:32.708Z,22.30
2022-10-23T07:27:32.696Z,23.40
2022-10-23T07:28:32.680Z,23.40
2022-10-23T07:29:32.660Z,24.50
2022-10-23T07:30:32.655Z,22.80
2022-10-23T07:31:32.651Z,19.80
2022-10-23T07:32:32.644Z,21.10
2022-10-23T07:33:32.592Z,20.00
2022-10-23T07:34:32.573Z,22.00
2022-10-23T07:35:35.559Z,19.10
2022-10-23T07:36:32.591Z,18.30
2022-10-23T07:37:32.553Z,14.60
2022-10-23T07:38:32.547Z,15.50
2022-10-23T07:39:32.513Z,16.50
2022-10-23T07:40:32.506Z,17.90
2022-10-23T07:41:32.520Z,16.30
2022-10-23T07:42:32.488Z,19.90
2022-10-23T07:44:32.489Z,13.40
2022-10-23T07:45:32.433Z,16.80
2022-10-23T07:46:32.443Z,15.10
2022-10-23T07:47:32.435Z,17.60
2022-10-23T07:48:32.418Z,16.50
2022-10-23T07:49:32.405Z,12.30
2022-10-23T07:50:32.385Z,15.90
2022-10-23T07:51:32.374Z,17.60
2022-10-23T07:52:35.796Z,11.90
2022-10-23T07:53:32.345Z,12.60
2022-10-23T07:54:32.357Z,13.30
2022-10-23T07:55:32.303Z,16.30
2022-10-23T07:56:32.296Z,9.90
2022-10-23T07:57:32.298Z,12.60
2022-10-23T07:58:32.311Z,14.50
2022-10-23T07:59:35.860Z,9.70
2022-10-23T08:00:32.242Z,13.60
2022-10-23T08:01:32.369Z,12.10
2022-10-23T08:02:32.262Z,10.20
2022-10-23T08:03:32.214Z,15.90
2022-10-23T08:04:32.207Z,21.70
2022-10-23T08:05:32.177Z,11.00
2022-10-23T08:06:32.169Z,9.40
2022-10-23T08:07:32.168Z,16.90
2022-10-23T08:08:32.137Z,9.90
2022-10-23T08:09:32.133Z,11.60
2022-10-23T08:10:32.122Z,12.40
2022-10-23T08:11:32.098Z,11.20
2022-10-23T08:12:32.075Z,10.00
2022-10-23T08:13:32.089Z,8.90
2022-10-23T08:14:32.047Z,12.30
2022-10-23T08:15:32.033Z,14.50
2022-10-23T08:16:32.026Z,9.20
2022-10-23T08:17:32.000Z,10.30
2022-10-23T08:18:31.999Z,9.60
2022-10-23T08:19:31.997Z,7.40
2022-10-23T08:20:32.019Z,11.60
2022-10-23T08:21:31.949Z,10.10
2022-10-23T08:22:31.956Z,10.00
2022-10-23T08:23:31.942Z,13.20
2022-10-23T08:24:31.932Z,14.40
2022-10-23T08:26:31.904Z,15.30
2022-10-23T08:27:31.884Z,11.50
2022-10-23T08:28:31.868Z,9.00
2022-10-23T08:29:31.842Z,8.60
2022-10-23T08:30:31.858Z,11.60
2022-10-23T08:31:31.817Z,17.90
2022-10-23T08:32:31.851Z,11.70
2022-10-23T08:33:31.844Z,11.10
2022-10-23T08:34:31.796Z,9.80
2022-10-23T08:35:31.788Z,6.70
2022-10-23T08:36:31.806Z,13.50
2022-10-23T08:37:31.752Z,11.10
2022-10-23T08:38:31.765Z,12.30
2022-10-23T08:39:31.767Z,8.50
2022-10-23T08:40:31.760Z,11.80
2022-10-23T08:41:31.756Z,8.10
2022-10-23T08:42:31.710Z,9.60
2022-10-23T08:43:31.705Z,8.20
2022-10-23T08:44:31.689Z,7.40
2022-10-23T08:45:31.657Z,6.80
2022-10-23T08:46:31.696Z,9.00
2022-10-23T08:47:31.670Z,6.30
2022-10-23T08:48:31.629Z,7.20
2022-10-23T08:49:31.641Z,7.60
2022-10-23T08:50:31.637Z,7.40
2022-10-23T08:51:31.585Z,5.20
2022-10-23T08:52:31.614Z,8.20
2022-10-23T08:53:31.527Z,8.20
2022-10-23T08:54:31.517Z,5.20
2022-10-23T08:55:31.542Z,6.70
2022-10-23T08:56:31.505Z,6.10
2022-10-23T08:57:31.495Z,7.70
2022-10-23T08:58:31.465Z,9.30
2022-10-23T08:59:31.447Z,7.60
2022-10-23T09:00:31.453Z,8.30
2022-10-23T09:01:31.659Z,5.80
2022-10-23T09:02:31.440Z,6.60
2022-10-23T09:03:31.402Z,5.50
2022-10-23T09:04:31.398Z,16.70
2022-10-23T09:05:31.379Z,7.60
2022-10-23T09:06:31.386Z,8.00
2022-10-23T09:07:31.341Z,6.40
2022-10-23T09:08:31.359Z,8.80
2022-10-23T09:09:31.332Z,8.20
2022-10-23T09:10:31.343Z,9.20
2022-10-23T09:11:31.294Z,6.20
2022-10-23T09:12:31.332Z,11.50
2022-10-23T09:13:31.301Z,9.20
2022-10-23T09:14:31.267Z,7.60
2022-10-23T09:15:31.255Z,8.40
2022-10-23T09:16:31.315Z,9.40
2022-10-23T09:17:31.212Z,9.80
2022-10-23T09:18:31.197Z,9.50
2022-10-23T09:19:31.256Z,7.40
2022-10-23T09:20:31.200Z,8.00
2022-10-23T09:21:31.157Z,7.50
2022-10-23T09:22:31.179Z,8.30
2022-10-23T09:23:31.141Z,9.00
2022-10-23T09:24:31.205Z,7.10
2022-10-23T09:25:31.183Z,9.40
2022-10-23T09:26:31.118Z,12.60
2022-10-23T09:27:31.093Z,9.70
2022-10-23T09:28:31.090Z,9.70
2022-10-23T09:29:31.102Z,9.20
2022-10-23T09:30:31.073Z,7.60
2022-10-23T09:31:31.059Z,7.60
2022-10-23T09:32:31.098Z,6.60
2022-10-23T09:33:31.050Z,5.80
2022-10-23T09:34:31.044Z,6.30
2022-10-23T09:35:30.974Z,5.80
2022-10-23T09:36:30.977Z,7.30
2022-10-23T09:37:30.995Z,7.10
2022-10-23T09:38:30.946Z,6.20
2022-10-23T09:39:30.949Z,7.60
2022-10-23T09:40:30.938Z,10.00
2022-10-23T09:41:30.930Z,6.40
2022-10-23T09:42:30.911Z,6.80
2022-10-23T09:43:30.879Z,8.90
2022-10-23T09:44:30.858Z,6.50
2022-10-23T09:45:30.861Z,6.60
2022-10-23T09:46:30.841Z,7.20
2022-10-23T09:47:30.826Z,11.10
2022-10-23T09:48:30.838Z,9.60
2022-10-23T09:49:30.803Z,11.90
2022-10-23T09:50:30.785Z,8.10
2022-10-23T09:51:30.789Z,9.30
2022-10-23T09:52:30.773Z,8.50
2022-10-23T09:53:30.738Z,7.00
2022-10-23T09:54:30.755Z,7.90
2022-10-23T09:55:30.742Z,6.80
2022-10-23T09:56:30.726Z,8.60
2022-10-23T09:57:30.701Z,8.00
2022-10-23T09:58:30.694Z,5.90
2022-10-23T09:59:30.706Z,10.70
2022-10-23T10:00:30.695Z,9.40
2022-10-23T10:01:30.828Z,8.30
2022-10-23T10:02:30.709Z,8.80
2022-10-23T10:03:30.620Z,14.30
2022-10-23T10:04:30.593Z,9.80
2022-10-23T10:05:30.594Z,8.80
2022-10-23T10:06:30.738Z,9.60
2022-10-23T10:07:33.323Z,6.50
2022-10-23T10:08:30.579Z,10.50
2022-10-23T10:09:30.526Z,7.50
2022-10-23T10:10:30.539Z,6.50
2022-10-23T10:11:30.503Z,15.20
2022-10-23T10:12:30.527Z,10.80
2022-10-23T10:13:30.495Z,11.80
2022-10-23T10:14:30.518Z,7.90
2022-10-23T10:15:30.485Z,6.80
2022-10-23T10:16:30.561Z,9.40
2022-10-23T10:17:30.435Z,6.60
2022-10-23T10:18:30.415Z,7.20
2022-10-23T10:19:30.404Z,5.30
2022-10-23T10:20:30.431Z,13.50
2022-10-23T10:21:30.372Z,12.70
2022-10-23T10:22:30.386Z,7.60
2022-10-23T10:23:30.441Z,5.70
2022-10-23T10:24:30.386Z,6.90
2022-10-23T10:25:30.324Z,7.10
2022-10-23T10:27:30.316Z,6.10
2022-10-23T10:28:30.284Z,9.10
2022-10-23T10:29:30.288Z,5.50
2022-10-23T10:30:30.269Z,8.50
2022-10-23T10:31:30.264Z,6.30
2022-10-23T10:32:30.255Z,5.80
2022-10-23T10:33:30.273Z,6.70
2022-10-23T10:34:30.219Z,8.70
2022-10-23T10:35:30.215Z,7.30
2022-10-23T10:36:30.211Z,5.30
2022-10-23T10:37:30.172Z,5.00
2022-10-23T10:38:30.184Z,6.60
2022-10-23T10:39:30.159Z,5.00
2022-10-23T10:40:30.184Z,9.60
2022-10-23T10:41:30.131Z,5.20
2022-10-23T10:42:30.145Z,6.80
2022-10-23T10:43:30.109Z,7.20
2022-10-23T10:44:30.102Z,7.30
2022-10-23T10:45:30.064Z,5.20
2022-10-23T10:46:30.130Z,3.60
2022-10-23T10:47:30.058Z,6.00
2022-10-23T10:48:30.055Z,4.60
2022-10-23T10:49:30.017Z,5.50
2022-10-23T10:50:30.030Z,3.70
2022-10-23T10:51:30.007Z,6.50
2022-10-23T10:52:30.005Z,6.90
2022-10-23T10:53:29.981Z,6.30
2022-10-23T10:54:29.945Z,6.80
2022-10-23T10:55:29.946Z,3.20
2022-10-23T10:56:29.943Z,3.20
2022-10-23T10:57:29.973Z,3.00
2022-10-23T10:58:29.899Z,3.40
2022-10-23T10:59:29.873Z,6.20
2022-10-23T11:00:29.917Z,5.00
2022-10-23T11:01:29.960Z,3.60
2022-10-23T11:02:29.863Z,3.40
2022-10-23T11:03:29.833Z,5.00
2022-10-23T11:04:29.915Z,4.90
2022-10-23T11:05:29.833Z,3.90
2022-10-23T11:06:29.804Z,4.70
2022-10-23T11:07:29.779Z,4.00
2022-10-23T11:08:29.805Z,5.10
2022-10-23T11:09:29.777Z,6.20
2022-10-23T11:10:29.751Z,10.70
2022-10-23T11:11:29.732Z,5.60
2022-10-23T11:12:29.709Z,5.60
2022-10-23T11:13:29.720Z,4.50
2022-10-23T11:14:29.700Z,6.80
2022-10-23T11:15:29.720Z,3.40
2022-10-23T11:16:29.683Z,6.10
2022-10-23T11:17:29.662Z,6.30
2022-10-23T11:18:29.677Z,8.40
2022-10-23T11:19:29.678Z,3.90
2022-10-23T11:20:29.623Z,4.80
2022-10-23T11:21:29.588Z,3.40
2022-10-23T11:22:29.586Z,4.20
2022-10-23T11:23:29.569Z,4.00
2022-10-23T11:24:29.556Z,5.60
2022-10-23T11:25:29.551Z,6.40
2022-10-23T11:26:29.547Z,10.30
2022-10-23T11:27:29.545Z,6.60
2022-10-23T11:28:29.543Z,3.30
2022-10-23T11:29:29.510Z,3.80
2022-10-23T11:30:29.509Z,4.00
2022-10-23T11:31:29.484Z,5.60
2022-10-23T11:32:29.504Z,3.10
2022-10-23T11:33:29.459Z,5.80
2022-10-23T11:34:29.527Z,7.50
2022-10-23T11:35:29.443Z,5.80
2022-10-23T11:36:29.512Z,5.30
2022-10-23T11:37:29.398Z,6.30
2022-10-23T11:38:29.384Z,4.20
2022-10-23T11:39:29.371Z,5.00
2022-10-23T11:40:29.382Z,3.70
2022-10-23T11:41:29.372Z,3.50
2022-10-23T11:42:29.322Z,4.30
2022-10-23T11:43:29.299Z,5.00
2022-10-23T11:44:29.313Z,8.90
2022-10-23T11:45:29.295Z,8.70
2022-10-23T11:46:29.298Z,11.90
2022-10-23T11:47:29.279Z,5.30
2022-10-23T11:48:29.240Z,6.70
2022-10-23T11:49:29.244Z,11.70
2022-10-23T11:50:29.221Z,11.20
2022-10-23T11:51:29.217Z,7.60
2022-10-23T11:52:29.211Z,14.80
2022-10-23T11:53:29.215Z,11.00
2022-10-23T11:54:29.227Z,2.90
2022-10-23T11:55:29.153Z,5.60
2022-10-23T11:56:29.155Z,17.10
2022-10-23T11:58:29.132Z,2.80
2022-10-23T11:59:29.114Z,9.00
2022-10-23T12:00:29.090Z,8.60
2022-10-23T12:01:29.186Z,13.30
2022-10-23T12:02:29.144Z,6.80
2022-10-23T12:03:29.047Z,2.90
2022-10-23T12:04:29.025Z,13.70
2022-10-23T12:05:29.039Z,7.80
2022-10-23T12:06:29.005Z,9.00
2022-10-23T12:07:29.069Z,9.00
2022-10-23T12:08:28.972Z,3.80
2022-10-23T12:09:29.001Z,9.20
2022-10-23T12:10:28.955Z,11.60
2022-10-23T12:11:28.974Z,23.80
2022-10-23T12:12:28.965Z,12.40
2022-10-23T12:13:28.928Z,7.10
2022-10-23T12:14:28.920Z,6.00
2022-10-23T12:15:28.919Z,9.20
2022-10-23T12:16:28.894Z,10.40
2022-10-23T12:17:28.884Z,5.20
2022-10-23T12:18:28.876Z,8.10
2022-10-23T12:19:28.878Z,3.10
2022-10-23T12:20:28.861Z,3.30
2022-10-23T12:21:28.829Z,4.30
2022-10-23T12:22:28.875Z,5.50
2022-10-23T12:23:28.826Z,5.20
2022-10-23T12:24:28.768Z,3.60
2022-10-23T12:25:28.828Z,9.80
2022-10-23T12:26:28.808Z,5.30
2022-10-23T12:27:28.787Z,4.40
2022-10-23T12:28:28.742Z,4.30
2022-10-23T12:29:28.755Z,4.80
2022-10-23T12:30:28.753Z,2.70
2022-10-23T12:31:28.715Z,6.30
2022-10-23T12:32:28.689Z,3.10
2022-10-23T12:33:28.689Z,4.00
2022-10-23T12:34:28.672Z,6.20
2022-10-23T12:35:28.648Z,6.20
2022-10-23T12:36:28.627Z,3.90
2022-10-23T12:37:28.610Z,3.90
2022-10-23T12:38:32.521Z,2.80
2022-10-23T12:39:28.596Z,8.80
2022-10-23T12:40:28.584Z,6.00
2022-10-23T12:41:28.546Z,3.10
2022-10-23T12:42:28.539Z,4.00
2022-10-23T12:43:28.660Z,5.00
2022-10-23T12:44:28.523Z,3.30
2022-10-23T12:45:28.499Z,4.50
2022-10-23T12:46:28.538Z,5.50
2022-10-23T12:47:28.500Z,3.00
2022-10-23T12:48:28.447Z,9.90
2022-10-23T12:49:28.482Z,6.90
2022-10-23T12:50:28.471Z,5.70
2022-10-23T12:51:28.436Z,6.80
2022-10-23T12:52:28.420Z,3.10
2022-10-23T12:53:28.611Z,3.80
2022-10-23T12:54:28.373Z,3.70
2022-10-23T12:55:29.791Z,6.20
2022-10-23T12:56:30.525Z,3.90
2022-10-23T12:57:28.333Z,7.20
2022-10-23T12:58:28.333Z,2.70
2022-10-23T12:59:28.325Z,8.50
2022-10-23T13:00:28.311Z,3.00
2022-10-23T13:01:28.393Z,7.20
2022-10-23T13:02:28.437Z,6.50
2022-10-23T13:03:28.277Z,4.20
2022-10-23T13:04:28.253Z,4.60
2022-10-23T13:05:28.237Z,3.90
2022-10-23T13:06:28.253Z,3.90